createdAt,value
2022-11-05T00:02:24.628Z,9.95
2022-11-05T00:05:22.466Z,10.01
2022-11-05T00:08:26.333Z,10.00
2022-11-05T00:11:13.820Z,9.94
2022-11-05T00:14:20.822Z,9.95
2022-11-05T00:17:02.724Z,9.83
2022-11-05T00:19:45.793Z,9.77
2022-11-05T00:22:44.803Z,9.71
2022-11-05T00:25:29.233Z,9.74
2022-11-05T00:28:11.795Z,9.72
2022-11-05T00:30:54.417Z,9.78
2022-11-05T00:33:35.730Z,9.80
2022-11-05T00:36:21.143Z,9.81
2022-11-05T00:39:01.886Z,9.73
2022-11-05T00:42:15.265Z,9.70
2022-11-05T00:45:06.752Z,9.63
2022-11-05T00:48:10.959Z,9.53
2022-11-05T00:50:49.120Z,9.52
2022-11-05T00:53:39.691Z,9.50
2022-11-05T00:56:25.028Z,9.51
2022-11-05T00:59:08.590Z,9.46
2022-11-05T01:01:53.672Z,9.45
2022-11-05T01:04:44.262Z,9.46
2022-11-05T01:07:31.402Z,9.43
2022-11-05T01:10:19.826Z,9.42
2022-11-05T01:13:00.788Z,9.36
2022-11-05T01:15:47.596Z,9.29
2022-11-05T01:18:30.000Z,9.33
2022-11-05T01:21:19.690Z,9.40
2022-11-05T01:24:04.837Z,9.37
2022-11-05T01:26:51.758Z,9.35
2022-11-05T01:29:36.351Z,9.35
2022-11-05T01:32:27.622Z,9.38
2022-11-05T01:35:08.895Z,9.42
2022-11-05T01:37:51.457Z,9.42
2022-11-05T01:40:37.397Z,9.44
2022-11-05T01:43:28.354Z,9.46
2022-11-05T01:46:10.208Z,9.44
2022-11-05T01:49:02.725Z,9.43
2022-11-05T01:51:45.647Z,9.43
2022-11-05T01:54:29.472Z,9.43
2022-11-05T01:57:16.590Z,9.44
2022-11-05T02:00:04.116Z,9.47
2022-11-05T02:02:52.852Z,9.49
2022-11-05T02:05:39.569Z,9.51
2022-11-05T02:08:51.015Z,9.45
2022-11-05T02:11:39.595Z,9.44
2022-11-05T02:14:24.850Z,9.47
2022-11-05T02:17:15.685Z,9.49
2022-11-05T02:20:26.171Z,9.48
2022-11-05T02:23:49.663Z,9.41
2022-11-05T02:26:37.808Z,9.38
2022-11-05T02:29:51.068Z,9.39
2022-11-05T02:32:41.844Z,9.39
2022-11-05T02:35:33.212Z,9.32
2022-11-05T02:38:22.686Z,9.25
2022-11-05T02:41:20.562Z,9.24
2022-11-05T02:44:24.219Z,9.28
2022-11-05T02:47:23.567Z,9.33
2022-11-05T02:50:19.226Z,9.34
2022-11-05T02:53:12.503Z,9.32
2022-11-05T02:56:06.919Z,9.29
2022-11-05T02:58:52.632Z,9.28
2022-11-05T03:01:27.276Z,9.26
2022-11-05T03:04:07.747Z,9.24
2022-11-05T03:06:54.385Z,9.21
2022-11-05T03:09:50.926Z,9.25
2022-11-05T03:13:01.955Z,9.31
2022-11-05T03:15:52.780Z,9.32
2022-11-05T03:18:43.184Z,9.31
2022-11-05T03:22:05.256Z,9.29
2022-11-05T03:24:54.231Z,9.31
2022-11-05T03:27:50.016Z,9.35
2022-11-05T03:30:36.862Z,9.40
2022-11-05T03:33:25.862Z,9.43
2022-11-05T03:36:12.308Z,9.39
2022-11-05T03:38:58.183Z,9.36
2022-11-05T03:41:48.797Z,9.38
2022-11-05T03:44:44.012Z,9.38
2022-11-05T03:47:34.277Z,9.43
2022-11-05T03:50:28.383Z,9.44
2022-11-05T03:53:25.347Z,9.41
2022-11-05T03:56:24.821Z,9.42
2022-11-05T03:59:07.026Z,9.44
2022-11-05T04:01:43.391Z,9.46
2022-11-05T04:04:20.496Z,9.51
2022-11-05T04:07:25.326Z,9.54
2022-11-05T04:10:28.271Z,9.48
2022-11-05T04:13:30.751Z,9.43
2022-11-05T04:16:39.368Z,9.45
2022-11-05T04:19:40.565Z,9.48
2022-11-05T04:22:43.819Z,9.49
2022-11-05T04:25:28.499Z,9.49
2022-11-05T04:28:09.954Z,9.46
2022-11-05T04:30:53.895Z,9.48
2022-11-05T04:33:33.403Z,9.50
2022-11-05T04:36:15.912Z,9.49
2022-11-05T04:38:58.172Z,9.47
2022-11-05T04:41:44.826Z,9.50
2022-11-05T04:44:24.017Z,9.51
2022-11-05T04:47:03.804Z,9.47
2022-11-05T04:49:51.265Z,9.37
2022-11-05T04:52:32.606Z,9.35
2022-11-05T04:55:15.969Z,9.37
2022-11-05T04:58:02.529Z,9.41
2022-11-05T05:00:43.756Z,9.42
2022-11-05T05:03:25.710Z,9.45
2022-11-05T05:06:07.101Z,9.52
2022-11-05T05:08:57.013Z,9.49
2022-11-05T05:11:37.074Z,9.40
2022-11-05T05:14:18.514Z,9.37
2022-11-05T05:17:07.479Z,9.31
2022-11-05T05:20:11.904Z,9.29
2022-11-05T05:22:58.886Z,9.36
2022-11-05T05:25:40.874Z,9.38
2022-11-05T05:28:30.444Z,9.35
2022-11-05T05:31:20.548Z,9.33
2022-11-05T05:33:59.989Z,9.38
2022-11-05T05:36:42.500Z,9.37
2022-11-05T05:39:19.507Z,9.31
2022-11-05T05:42:02.443Z,9.24
2022-11-05T05:44:47.329Z,9.22
2022-11-05T05:47:33.683Z,9.22
2022-11-05T05:50:15.371Z,9.22
2022-11-05T05:53:01.570Z,9.27
2022-11-05T05:55:56.434Z,9.26
2022-11-05T05:58:42.423Z,9.26
2022-11-05T06:01:25.821Z,9.29
2022-11-05T06:04:09.125Z,9.32
2022-11-05T06:06:52.801Z,9.34
2022-11-05T06:09:35.458Z,9.39
2022-11-05T06:12:16.848Z,9.43
2022-11-05T06:15:06.247Z,9.47
2022-11-05T06:17:51.368Z,9.49
2022-11-05T06:20:42.524Z,9.47
2022-11-05T06:23:30.575Z,9.48
2022-11-05T06:26:13.325Z,9.49
2022-11-05T06:28:59.116Z,9.50
2022-11-05T06:31:43.753Z,9.52
2022-11-05T06:34:26.174Z,9.60
2022-11-05T06:37:07.378Z,9.58
2022-11-05T06:39:48.614Z,9.57
2022-11-05T06:42:30.586Z,9.59
2022-11-05T06:45:13.706Z,9.60
2022-11-05T06:48:02.077Z,9.62
2022-11-05T06:50:45.950Z,9.68
2022-11-05T06:53:25.323Z,9.70
2022-11-05T06:56:10.200Z,9.75
2022-11-05T06:58:52.023Z,9.78
2022-11-05T07:01:35.726Z,9.80
2022-11-05T07:04:19.023Z,9.79
2022-11-05T07:06:59.838Z,9.81
2022-11-05T07:09:44.281Z,9.84
2022-11-05T07:12:26.468Z,9.89
2022-11-05T07:15:17.368Z,9.94
2022-11-05T07:18:03.229Z,9.95
2022-11-05T07:20:47.726Z,9.97
2022-11-05T07:23:27.723Z,9.97
2022-11-05T07:26:16.670Z,9.91
2022-11-05T07:28:56.563Z,9.94
2022-11-05T07:31:46.186Z,9.93
2022-11-05T07:34:21.648Z,9.90
2022-11-05T07:37:04.000Z,9.92
2022-11-05T07:39:43.045Z,9.93
2022-11-05T07:42:31.672Z,9.93
2022-11-05T07:45:11.023Z,10.01
2022-11-05T07:48:04.239Z,10.07
2022-11-05T07:50:45.090Z,10.07
2022-11-05T07:53:28.323Z,10.06
2022-11-05T07:56:07.887Z,10.03
2022-11-05T07:58:49.500Z,10.04
2022-11-05T08:01:32.050Z,10.10
2022-11-05T08:04:17.691Z,10.13
2022-11-05T08:06:58.444Z,10.14
2022-11-05T08:09:49.888Z,10.19
2022-11-05T08:12:30.081Z,10.24
2022-11-05T08:15:16.157Z,10.27
2022-11-05T08:18:19.492Z,10.25
2022-11-05T08:20:58.830Z,10.22
2022-11-05T08:23:42.450Z,10.26
2022-11-05T08:26:30.366Z,10.34
2022-11-05T08:29:12.461Z,10.40
2022-11-05T08:31:55.681Z,10.48
2022-11-05T08:34:35.877Z,10.54
2022-11-05T08:37:19.963Z,10.59
2022-11-05T08:40:03.092Z,10.60
2022-11-05T08:42:44.551Z,10.60
2022-11-05T08:45:30.547Z,10.64
2022-11-05T08:48:13.497Z,10.72
2022-11-05T08:50:50.649Z,10.71
2022-11-05T08:53:27.933Z,10.69
2022-11-05T08:56:03.432Z,10.72
2022-11-05T08:58:51.861Z,10.76
2022-11-05T09:01:39.380Z,10.78
2022-11-05T09:04:22.806Z,10.76
2022-11-05T09:07:01.070Z,10.80
2022-11-05T09:10:00.190Z,10.84
2022-11-05T09:12:49.665Z,10.86
2022-11-05T09:15:51.535Z,10.91
2022-11-05T09:18:48.285Z,10.95
2022-11-05T09:21:39.783Z,11.05
2022-11-05T09:24:43.266Z,11.18
2022-11-05T09:27:57.401Z,11.28
2022-11-05T09:31:19.619Z,11.27
2022-11-05T09:34:12.515Z,11.29
2022-11-05T09:37:04.648Z,11.30
2022-11-05T09:39:53.983Z,11.37
2022-11-05T09:43:00.218Z,11.45
2022-11-05T09:46:03.235Z,11.51
2022-11-05T09:48:52.996Z,11.66
2022-11-05T09:52:15.289Z,11.79
2022-11-05T09:55:04.458Z,11.86
2022-11-05T09:58:29.001Z,11.86
2022-11-05T10:00:58.849Z,11.89
2022-11-05T10:03:30.301Z,11.92
2022-11-05T10:06:11.496Z,11.97
2022-11-05T10:08:47.185Z,11.97
2022-11-05T10:11:30.677Z,11.96
2022-11-05T10:14:07.122Z,11.95
2022-11-05T10:16:42.347Z,11.94
2022-11-05T10:19:24.789Z,11.90
2022-11-05T10:22:19.975Z,11.79
2022-11-05T10:24:50.987Z,11.65
2022-11-05T10:27:34.918Z,11.55
2022-11-05T10:30:04.700Z,11.49
2022-11-05T10:32:35.834Z,11.50
2022-11-05T10:35:08.883Z,11.54
2022-11-05T10:37:40.821Z,11.56
2022-11-05T10:40:45.902Z,11.60
2022-11-05T10:43:33.354Z,11.73
2022-11-05T10:46:32.897Z,11.85
2022-11-05T10:49:33.047Z,11.97
2022-11-05T10:52:22.336Z,12.07
2022-11-05T10:54:54.116Z,12.15
2022-11-05T10:57:33.012Z,12.25
2022-11-05T11:00:17.406Z,12.33
2022-11-05T11:02:49.760Z,12.38
2022-11-05T11:05:22.973Z,12.50
2022-11-05T11:08:12.659Z,12.63
2022-11-05T11:10:52.064Z,12.81
2022-11-05T11:13:30.134Z,12.94
2022-11-05T11:16:29.484Z,12.96
2022-11-05T11:19:01.282Z,12.89
2022-11-05T11:21:32.722Z,12.91
2022-11-05T11:24:04.109Z,12.90
2022-11-05T11:26:37.660Z,12.84
2022-11-05T11:29:20.460Z,12.71
2022-11-05T11:31:49.167Z,12.67
2022-11-05T11:34:27.884Z,12.71
2022-11-05T11:37:07.492Z,12.80
2022-11-05T11:39:44.560Z,12.87
2022-11-05T11:42:27.910Z,12.92
2022-11-05T11:44:59.527Z,12.96
2022-11-05T11:47:30.569Z,12.92
2022-11-05T11:50:02.600Z,12.85
2022-11-05T11:52:37.319Z,12.81
2022-11-05T11:55:12.089Z,12.83
2022-11-05T11:58:05.401Z,12.87
2022-11-05T12:00:46.960Z,12.92
2022-11-05T12:03:36.163Z,12.91
2022-11-05T12:06:13.746Z,12.76
2022-11-05T12:08:58.127Z,12.69
2022-11-05T12:11:40.223Z,12.67
2022-11-05T12:14:46.627Z,12.61
2022-11-05T12:17:27.463Z,12.56
2022-11-05T12:20:15.316Z,12.57
2022-11-05T12:22:53.029Z,12.57
2022-11-05T12:25:40.702Z,12.63
2022-11-05T12:28:17.945Z,12.71
2022-11-05T12:31:06.072Z,12.77
2022-11-05T12:33:52.879Z,12.73
2022-11-05T12:36:33.313Z,12.66
2022-11-05T12:39:20.835Z,12.61
2022-11-05T12:42:02.827Z,12.51
2022-11-05T12:44:50.807Z,12.51
2022-11-05T12:47:52.101Z,12.56
2022-11-05T12:50:26.673Z,12.58
2022-11-05T12:53:33.298Z,12.63
2022-11-05T12:56:06.713Z,12.58
2022-11-05T12:58:40.528Z,12.48
2022-11-05T13:01:15.205Z,12.39
2022-11-05T13:04:09.145Z,12.41
2022-11-05T13:06:41.303Z,12.46
2022-11-05T13:09:19.148Z,12.48
2022-11-05T13:11:50.023Z,12.43
2022-11-05T13:14:24.183Z,12.42
2022-11-05T13:17:01.670Z,12.39
2022-11-05T13:19:42.210Z,12.30
2022-11-05T13:22:44.752Z,12.23
2022-11-05T13:25:22.749Z,12.18
2022-11-05T13:27:59.705Z,12.08
2022-11-05T13:30:38.880Z,12.04
2022-11-05T13:33:12.298Z,12.03
2022-11-05T13:36:15.562Z,12.01
2022-11-05T13:39:00.180Z,12.03
2022-11-05T13:41:40.278Z,12.05
2022-11-05T13:44:37.460Z,12.06
2022-11-05T13:47:16.284Z,12.03
2022-11-05T13:49:57.315Z,11.97
2022-11-05T13:52:45.082Z,11.90
2022-11-05T13:55:35.356Z,11.81
2022-11-05T13:58:04.578Z,11.71
2022-11-05T14:00:39.242Z,11.65
2022-11-05T14:03:18.849Z,11.63
2022-11-05T14:05:58.155Z,11.62
2022-11-05T14:08:29.210Z,11.59
2022-11-05T14:11:03.142Z,11.58
2022-11-05T14:13:32.400Z,11.54
2022-11-05T14:16:10.363Z,11.54
2022-11-05T14:18:41.267Z,11.58
2022-11-05T14:21:28.290Z,11.63
2022-11-05T14:24:19.801Z,11.64
2022-11-05T14:27:00.741Z,11.58
2022-11-05T14:29:44.620Z,11.52
2022-11-05T14:32:22.163Z,11.47
2022-11-05T14:35:01.419Z,11.43
2022-11-05T14:37:56.206Z,11.39
2022-11-05T14:40:42.617Z,11.34
2022-11-05T14:43:14.389Z,11.32
2022-11-05T14:46:06.562Z,11.30
2022-11-05T14:48:53.086Z,11.27
2022-11-05T14:51:38.396Z,11.24
2022-11-05T14:54:18.961Z,11.17
2022-11-05T14:56:56.321Z,11.10
2022-11-05T14:59:25.277Z,11.02
2022-11-05T15:02:04.353Z,10.93
2022-11-05T15:04:45.882Z,10.87
2022-11-05T15:07:33.927Z,10.83
2022-11-05T15:10:10.661Z,10.81
2022-11-05T15:12:48.118Z,10.78
2022-11-05T15:15:24.411Z,10.73
2022-11-05T15:18:06.905Z,10.69
2022-11-05T15:20:42.315Z,10.61
2022-11-05T15:23:18.364Z,10.55
2022-11-05T15:26:02.046Z,10.48
2022-11-05T15:28:54.565Z,10.44
2022-11-05T15:31:36.536Z,10.44
2022-11-05T15:34:20.098Z,10.43
2022-11-05T15:36:53.420Z,10.40
2022-11-05T15:39:30.520Z,10.36
2022-11-05T15:42:05.054Z,10.33
2022-11-05T15:44:39.659Z,10.28
2022-11-05T15:47:23.387Z,10.26
2022-11-05T15:49:57.713Z,10.23
2022-11-05T15:52:37.387Z,10.18
2022-11-05T15:55:26.760Z,10.15
2022-11-05T15:58:07.203Z,10.12
2022-11-05T16:00:37.064Z,10.10
2022-11-05T16:03:15.578Z,10.08
2022-11-05T16:05:48.154Z,10.06
2022-11-05T16:08:21.338Z,10.04
2022-11-05T16:10:53.568Z,10.03
2022-11-05T16:13:38.948Z,10.05
2022-11-05T16:16:31.682Z,10.08
2022-11-05T16:19:00.795Z,10.06
2022-11-05T16:21:29.638Z,10.03
2022-11-05T16:23:59.966Z,10.01
2022-11-05T16:27:01.691Z,9.96
2022-11-05T16:29:35.218Z,9.84
2022-11-05T16:32:14.846Z,9.75
2022-11-05T16:34:49.671Z,9.67
2022-11-05T16:37:21.542Z,9.63
2022-11-05T16:39:51.327Z,9.59
2022-11-05T16:42:38.133Z,9.57
2022-11-05T16:45:11.506Z,9.52
2022-11-05T16:47:40.090Z,9.42
2022-11-05T16:50:24.436Z,9.37
2022-11-05T16:52:53.234Z,9.37
2022-11-05T16:55:22.384Z,9.39
2022-11-05T16:57:55.669Z,9.40
2022-11-05T17:00:25.298Z,9.37
2022-11-05T17:02:54.048Z,9.33
2022-11-05T17:05:25.169Z,9.29
2022-11-05T17:07:55.430Z,9.24
2022-11-05T17:10:25.886Z,9.19
2022-11-05T17:12:54.686Z,9.16
2022-11-05T17:15:27.721Z,9.16
2022-11-05T17:17:57.041Z,9.16
2022-11-05T17:20:39.787Z,9.17
2022-11-05T17:23:15.051Z,9.18
2022-11-05T17:25:47.123Z,9.19
2022-11-05T17:28:17.015Z,9.17
2022-11-05T17:30:52.361Z,9.15
2022-11-05T17:33:23.446Z,9.10
2022-11-05T17:35:52.348Z,9.04
2022-11-05T17:38:22.821Z,8.97
2022-11-05T17:40:52.331Z,8.93
2022-11-05T17:43:21.234Z,8.93
2022-11-05T17:45:52.648Z,8.97
2022-11-05T17:48:22.074Z,9.00
2022-11-05T17:50:51.381Z,8.98
2022-11-05T17:53:20.664Z,8.91
2022-11-05T17:55:49.811Z,8.85
2022-11-05T17:58:18.386Z,8.83
2022-11-05T18:00:47.956Z,8.83
2022-11-05T18:03:29.121Z,8.86
2022-11-05T18:06:20.250Z,8.92
2022-11-05T18:09:09.935Z,8.92
2022-11-05T18:11:57.418Z,8.93
2022-11-05T18:14:43.085Z,8.92
2022-11-05T18:17:31.144Z,8.90
2022-11-05T18:20:21.908Z,8.86
2022-11-05T18:23:07.650Z,8.83
2022-11-05T18:26:07.514Z,8.78
2022-11-05T18:28:59.430Z,8.79
2022-11-05T18:31:54.791Z,8.79
2022-11-05T18:34:45.793Z,8.78
2022-11-05T18:37:37.213Z,8.75
2022-11-05T18:43:21.301Z,8.70
2022-11-05T18:45:56.738Z,8.69
2022-11-05T18:48:25.871Z,8.69
2022-11-05T18:50:57.770Z,8.69
2022-11-05T18:53:30.874Z,8.64
2022-11-05T18:55:59.436Z,8.58
2022-11-05T18:58:27.986Z,8.50
2022-11-05T19:00:59.279Z,8.46
2022-11-05T19:03:31.474Z,8.44
2022-11-05T19:06:04.310Z,8.37
2022-11-05T19:08:33.885Z,8.31
2022-11-05T19:11:13.951Z,8.29
2022-11-05T19:13:43.722Z,8.25
2022-11-05T19:16:18.153Z,8.23
2022-11-05T19:18:47.327Z,8.20
2022-11-05T19:21:24.698Z,8.13
2022-11-05T19:23:54.140Z,8.06
2022-11-05T19:26:28.621Z,8.04
2022-11-05T19:29:00.347Z,8.00
2022-11-05T19:31:31.057Z,7.94
2022-11-05T19:34:01.330Z,7.93
2022-11-05T19:36:30.541Z,7.97
2022-11-05T19:39:05.158Z,7.98
2022-11-05T19:41:33.797Z,7.97
2022-11-05T19:48:00.327Z,8.05
2022-11-05T19:50:29.204Z,8.06
2022-11-05T19:52:57.814Z,8.07
2022-11-05T19:55:26.654Z,8.08
2022-11-05T19:57:55.663Z,8.05
2022-11-05T20:00:24.261Z,8.05
2022-11-05T20:02:53.159Z,8.10
2022-11-05T20:05:22.393Z,8.13
2022-11-05T20:07:53.031Z,8.12
2022-11-05T20:10:22.156Z,8.15
2022-11-05T20:12:51.502Z,8.16
2022-11-05T20:15:20.243Z,8.15
2022-11-05T20:17:53.044Z,8.13
2022-11-05T20:20:21.985Z,8.13
2022-11-05T20:22:52.736Z,8.10
2022-11-05T20:25:21.767Z,8.11
2022-11-05T20:27:51.150Z,8.14
2022-11-05T20:30:20.835Z,8.12
2022-11-05T20:32:56.897Z,8.05
2022-11-05T20:35:25.758Z,7.93
2022-11-05T20:37:54.678Z,7.84
2022-11-05T20:40:23.258Z,7.72
2022-11-05T20:42:52.500Z,7.66
2022-11-05T20:45:21.216Z,7.65
2022-11-05T20:47:50.150Z,7.68
2022-11-05T20:50:18.982Z,7.74
2022-11-05T20:52:47.848Z,7.79
2022-11-05T20:55:16.473Z,7.85
2022-11-05T20:57:45.375Z,7.91
2022-11-05T21:00:14.872Z,7.91
2022-11-05T21:02:43.597Z,7.88
2022-11-05T21:05:12.596Z,7.83
2022-11-05T21:07:41.513Z,7.77
2022-11-05T21:10:10.159Z,7.76
2022-11-05T21:12:40.541Z,7.77
2022-11-05T21:15:09.944Z,7.79
2022-11-05T21:17:38.581Z,7.81
2022-11-05T21:20:08.149Z,7.81
2022-11-05T21:22:36.760Z,7.82
2022-11-05T21:25:05.710Z,7.87
2022-11-05T21:27:34.770Z,7.87
2022-11-05T21:30:04.213Z,7.84
2022-11-05T21:32:32.849Z,7.76
2022-11-05T21:35:02.349Z,7.64
2022-11-05T21:37:31.931Z,7.55
2022-11-05T21:40:00.663Z,7.50
2022-11-05T21:42:30.263Z,7.47
2022-11-05T21:45:00.505Z,7.39
2022-11-05T21:47:29.720Z,7.36
2022-11-05T21:49:58.728Z,7.37
2022-11-05T21:52:45.969Z,7.33
2022-11-05T21:55:33.860Z,7.33
2022-11-05T21:58:28.483Z,7.38
2022-11-05T22:00:57.583Z,7.40
2022-11-05T22:03:26.590Z,7.41
2022-11-05T22:05:57.749Z,7.39
2022-11-05T22:08:27.604Z,7.40
2022-11-05T22:10:56.467Z,7.38
2022-11-05T22:13:25.388Z,7.37
2022-11-05T22:15:57.701Z,7.35
2022-11-05T22:18:26.531Z,7.36
2022-11-05T22:20:55.198Z,7.35
2022-11-05T22:23:23.769Z,7.34
2022-11-05T22:26:00.443Z,7.35
2022-11-05T22:28:29.637Z,7.35
2022-11-05T22:30:58.387Z,7.34
2022-11-05T22:33:27.056Z,7.35
2022-11-05T22:35:56.235Z,7.38
2022-11-05T22:38:24.918Z,7.40
2022-11-05T22:40:53.875Z,7.42
2022-11-05T22:43:23.112Z,7.41
2022-11-05T22:45:51.849Z,7.37
2022-11-05T22:48:20.597Z,7.32
2022-11-05T22:50:49.858Z,7.24
2022-11-05T22:53:18.332Z,7.18
2022-11-05T22:55:46.835Z,7.12
2022-11-05T22:58:16.084Z,7.06
2022-11-05T23:00:44.920Z,7.05
2022-11-05T23:03:13.731Z,7.04
2022-11-05T23:05:42.494Z,7.02
2022-11-05T23:08:29.754Z,6.97
2022-11-05T23:11:17.681Z,6.84
2022-11-05T23:13:46.259Z,6.75
2022-11-05T23:16:34.106Z,6.61
2022-11-05T23:19:21.512Z,6.46
2022-11-05T23:22:09.775Z,6.36
2022-11-05T23:24:38.468Z,6.37
2022-11-05T23:27:07.848Z,6.42
2022-11-05T23:29:36.660Z,6.55
2022-11-05T23:32:24.118Z,6.71
2022-11-05T23:34:54.813Z,6.73
2022-11-05T23:37:47.431Z,6.73
2022-11-05T23:40:28.611Z,6.71
2022-11-05T23:43:16.629Z,6.70
2022-11-05T23:45:58.023Z,6.74
2022-11-05T23:48:37.700Z,6.82
2022-11-05T23:51:10.636Z,6.90
2022-11-05T23:53:41.679Z,6.93
2022-11-05T23:56:13.496Z,6.90
2022-11-05T23:58:42.924Z,6.90
